Archival Weather

Snohomish County (Paine Fld)

Everett, Washington (KPAE)

Report from: Saturday, November 18, 2023 2:53 AM PST
Current time: Thursday, June 20, 2024 11:33 PM PDT

Current weather – Weather history – Daily summaries
Weather forecast

Temperature5.6°C (42.1°F)
Dew point0.6°C (33.1°F)
Winds Calm
Visibility10 mi. (16.1 km)
Clouds Sky clear
Altimeter29.85 in.Hg (1011 mB)
Relative humidity70 %
Density altitude-965 ft. (-294 m)
Sea-level pressure101.1 kPa (1011 mB, 29.86 in.Hg)
Remarks Fully automated report
Automated weather observing station with precipitation discriminator
Flight conditions Visual Meteorological Conditions
Raw dataKPAE 181053Z AUTO 00000KT 10SM CLR 06/01 A2985 RMK AO2 SLP111 T00560006
An error has occurred. This application may no longer respond until reloaded. Reload 🗙